Time;durP1;ratioP1;P1;durP2;ratioP2;P2;SDS_P1;SDS_P2;PMS_P1;PMS_P2;Temp;Humidity;BMP_temperature;BMP_pressure;BME280_temperature;BME280_humidity;BME280_pressure;Samples;Min_cycle;Max_cycle;Signal;HPM_P1;HPM_P2
2023/08/01 00:01:02;;;;;;;2.30;2.10;;;19.80;99.90;;;;;;5092798;28;20108;-73
2023/08/01 00:03:28;;;;;;;3.20;2.88;;;19.90;99.90;;;;;;5092819;28;20385;-72
2023/08/01 00:05:54;;;;;;;3.10;2.85;;;19.90;99.90;;;;;;5091426;28;20030;-73
2023/08/01 00:08:21;;;;;;;3.35;2.70;;;19.80;99.90;;;;;;5093072;28;20050;-72
2023/08/01 00:10:47;;;;;;;3.17;2.88;;;19.90;99.90;;;;;;5093036;28;20036;-73
2023/08/01 00:13:12;;;;;;;3.25;2.95;;;19.80;99.90;;;;;;5104548;28;20026;-72
2023/08/01 00:15:38;;;;;;;5.05;3.75;;;19.80;99.90;;;;;;5106967;28;20107;-73
2023/08/01 00:18:04;;;;;;;4.95;3.70;;;19.90;99.90;;;;;;5109369;28;20028;-73
2023/08/01 00:20:30;;;;;;;4.85;3.38;;;19.80;99.90;;;;;;5103896;28;20028;-73
2023/08/01 00:22:56;;;;;;;3.78;3.42;;;19.80;99.90;;;;;;5096738;28;20015;-73
2023/08/01 00:25:21;;;;;;;4.88;3.83;;;19.80;99.90;;;;;;5104528;28;20078;-72
2023/08/01 00:27:47;;;;;;;3.67;3.38;;;19.80;99.90;;;;;;5112907;28;20020;-73
2023/08/01 00:30:13;;;;;;;5.30;3.70;;;19.80;99.90;;;;;;5112204;28;20113;-72
2023/08/01 00:32:39;;;;;;;4.40;3.65;;;19.80;99.90;;;;;;5112805;28;20020;-72
2023/08/01 00:35:05;;;;;;;4.90;4.40;;;19.70;99.90;;;;;;5112402;28;20433;-72
2023/08/01 00:37:30;;;;;;;5.05;4.65;;;19.70;99.90;;;;;;5112570;28;20099;-72
2023/08/01 00:39:56;;;;;;;7.07;5.28;;;19.70;99.90;;;;;;5112308;28;20483;-73
2023/08/01 00:42:22;;;;;;;8.55;5.85;;;19.70;99.90;;;;;;5112710;28;20049;-72
2023/08/01 00:44:48;;;;;;;8.65;4.97;;;19.70;99.90;;;;;;5112351;28;20066;-72
2023/08/01 00:47:15;;;;;;;6.00;5.40;;;19.70;99.90;;;;;;5112713;28;20044;-72
2023/08/01 00:49:41;;;;;;;6.60;6.00;;;19.70;99.90;;;;;;5111859;28;20106;-73
2023/08/01 00:52:08;;;;;;;7.57;6.65;;;19.60;99.90;;;;;;5091912;28;20054;-72
2023/08/01 00:54:36;;;;;;;7.05;6.30;;;19.60;99.90;;;;;;5092274;28;20053;-72
2023/08/01 00:57:05;;;;;;;7.95;6.85;;;19.50;99.90;;;;;;5092117;28;20089;-72
2023/08/01 00:59:31;;;;;;;7.15;6.45;;;19.50;99.90;;;;;;5091789;28;20085;-72
2023/08/01 01:01:59;;;;;;;7.45;6.32;;;19.40;99.90;;;;;;5091844;28;20020;-72
2023/08/01 01:04:26;;;;;;;8.48;6.10;;;19.40;99.90;;;;;;5092155;28;20457;-72
2023/08/01 01:06:59;;;;;;;7.45;6.68;;;19.40;99.90;;;;;;5097487;28;20018;-73
2023/08/01 01:09:28;;;;;;;7.82;6.68;;;19.20;99.90;;;;;;5111207;28;20375;-72
2023/08/01 01:11:54;;;;;;;8.90;6.65;;;19.20;99.90;;;;;;5110626;28;20390;-73
2023/08/01 01:14:20;;;;;;;7.93;6.78;;;19.20;99.90;;;;;;5112116;28;20407;-72
2023/08/01 01:16:45;;;;;;;9.60;6.90;;;19.20;99.90;;;;;;5092240;28;20139;-73
2023/08/01 01:19:11;;;;;;;10.48;7.15;;;19.20;99.90;;;;;;5091821;28;20032;-72
2023/08/01 01:21:39;;;;;;;12.05;8.07;;;19.20;99.90;;;;;;5090542;28;20632;-73
2023/08/01 01:24:09;;;;;;;10.82;8.05;;;19.20;99.90;;;;;;5091619;28;20024;-72
2023/08/01 01:26:36;;;;;;;9.52;7.57;;;19.20;99.90;;;;;;5091941;28;20024;-72
2023/08/01 01:29:05;;;;;;;11.23;7.55;;;19.20;99.90;;;;;;5090329;28;20024;-73
2023/08/01 01:31:34;;;;;;;10.77;7.43;;;19.20;99.90;;;;;;5090601;28;20043;-72
2023/08/01 01:34:00;;;;;;;13.07;8.23;;;19.20;99.90;;;;;;5091287;28;20100;-73
2023/08/01 01:36:26;;;;;;;11.40;7.13;;;19.10;99.90;;;;;;5091602;28;20384;-73
2023/08/01 01:38:52;;;;;;;11.73;7.53;;;19.10;99.90;;;;;;5091513;28;20039;-72
2023/08/01 01:41:17;;;;;;;8.68;7.25;;;18.80;99.90;;;;;;5093023;28;20034;-71
2023/08/01 01:43:44;;;;;;;11.32;7.60;;;18.80;99.90;;;;;;5095447;28;20030;-72
2023/08/01 01:46:10;;;;;;;12.63;7.38;;;18.80;99.90;;;;;;5095758;28;20103;-72
2023/08/01 01:48:35;;;;;;;13.93;8.00;;;18.80;99.90;;;;;;5095714;28;20540;-72
2023/08/01 01:51:01;;;;;;;11.80;8.00;;;18.80;99.90;;;;;;5095273;28;20088;-72
2023/08/01 01:53:27;;;;;;;13.27;8.30;;;18.90;99.90;;;;;;5094667;28;20020;-72
2023/08/01 01:55:53;;;;;;;13.65;9.32;;;18.90;99.90;;;;;;5100850;28;20031;-72
2023/08/01 01:58:19;;;;;;;12.25;8.90;;;19.00;99.90;;;;;;5115383;28;20539;-72
2023/08/01 02:00:44;;;;;;;15.95;11.38;;;19.00;99.90;;;;;;5115332;28;20043;-72
2023/08/01 02:03:13;;;;;;;18.00;12.75;;;19.00;99.90;;;;;;5114121;28;20022;-72
2023/08/01 02:05:42;;;;;;;15.82;12.48;;;18.90;99.90;;;;;;5115532;28;20432;-72
2023/08/01 02:08:07;;;;;;;15.73;12.13;;;18.80;99.90;;;;;;5115585;28;20024;-73
2023/08/01 02:10:33;;;;;;;20.65;15.00;;;18.90;99.90;;;;;;5115334;28;20032;-73
2023/08/01 02:12:59;;;;;;;23.38;15.20;;;18.90;99.90;;;;;;5114823;28;20027;-72
2023/08/01 02:15:24;;;;;;;20.40;16.75;;;18.80;99.90;;;;;;5115500;28;20038;-73
2023/08/01 02:17:50;;;;;;;23.38;16.75;;;18.90;99.90;;;;;;5114726;28;20506;-72
2023/08/01 02:20:16;;;;;;;21.15;17.00;;;18.90;99.90;;;;;;5115036;28;20039;-72
2023/08/01 02:22:42;;;;;;;24.20;18.27;;;18.90;99.90;;;;;;5115273;28;20024;-72
2023/08/01 02:25:08;;;;;;;24.77;17.98;;;18.90;99.90;;;;;;5114489;28;20027;-72
2023/08/01 02:27:33;;;;;;;24.80;18.13;;;18.90;99.90;;;;;;5115051;28;20430;-73
2023/08/01 02:29:59;;;;;;;24.92;18.50;;;18.90;99.90;;;;;;5115031;28;20020;-73
2023/08/01 02:32:25;;;;;;;26.38;18.83;;;18.90;99.90;;;;;;5115230;28;20031;-72
2023/08/01 02:34:50;;;;;;;25.70;19.20;;;18.80;99.90;;;;;;5113446;28;20436;-72
2023/08/01 02:37:16;;;;;;;31.63;19.67;;;18.80;99.90;;;;;;5114696;28;20031;-72
2023/08/01 02:39:42;;;;;;;26.60;20.23;;;18.80;99.90;;;;;;5114341;28;20035;-72
2023/08/01 02:42:08;;;;;;;32.50;18.77;;;18.80;99.90;;;;;;5114025;28;20020;-72
2023/08/01 02:44:33;;;;;;;29.83;19.45;;;18.80;99.90;;;;;;5114187;27;20022;-72
2023/08/01 02:46:59;;;;;;;28.40;19.75;;;18.70;99.90;;;;;;5113920;28;20023;-72
2023/08/01 02:49:25;;;;;;;25.90;19.58;;;18.70;99.90;;;;;;5114542;28;20070;-72
2023/08/01 02:51:51;;;;;;;28.13;18.35;;;18.80;99.90;;;;;;5112441;28;20096;-72
2023/08/01 02:54:16;;;;;;;25.52;18.05;;;18.70;99.90;;;;;;5114602;28;20024;-72
2023/08/01 02:56:42;;;;;;;34.05;20.50;;;18.60;99.90;;;;;;5114235;28;20027;-72
2023/08/01 02:59:08;;;;;;;28.52;20.15;;;18.70;99.90;;;;;;5112176;28;20184;-73
2023/08/01 03:01:35;;;;;;;30.80;19.63;;;18.70;99.90;;;;;;5114342;28;20178;-72
2023/08/01 03:04:06;;;;;;;31.80;20.10;;;18.60;99.90;;;;;;5114550;28;20020;-72
2023/08/01 03:06:32;;;;;;;34.20;20.88;;;18.60;99.90;;;;;;5114773;28;20015;-71
2023/08/01 03:08:59;;;;;;;33.00;20.33;;;18.60;99.90;;;;;;5114422;28;20475;-71
2023/08/01 03:11:24;;;;;;;29.00;17.35;;;18.60;99.90;;;;;;5114013;28;20494;-72
2023/08/01 03:13:50;;;;;;;28.38;18.52;;;18.50;99.90;;;;;;5114282;28;20035;-72
2023/08/01 03:16:17;;;;;;;25.88;18.05;;;18.50;99.90;;;;;;5113913;28;20038;-72
2023/08/01 03:18:42;;;;;;;29.67;18.83;;;18.50;99.90;;;;;;5114067;28;20023;-72
2023/08/01 03:21:08;;;;;;;29.65;18.85;;;18.60;99.90;;;;;;5113671;28;20546;-73
2023/08/01 03:23:34;;;;;;;28.08;18.23;;;18.60;99.90;;;;;;5114019;28;20059;-72
2023/08/01 03:26:00;;;;;;;29.63;18.27;;;18.50;99.90;;;;;;5113900;28;20028;-72
2023/08/01 03:28:26;;;;;;;27.73;18.05;;;18.60;99.90;;;;;;5114284;28;20026;-72
2023/08/01 03:30:53;;;;;;;27.80;19.60;;;18.60;99.90;;;;;;5113685;28;20028;-71
2023/08/01 03:33:20;;;;;;;33.03;20.77;;;18.60;99.90;;;;;;5113971;28;20023;-72
2023/08/01 03:35:46;;;;;;;33.65;18.42;;;18.60;99.90;;;;;;5113526;28;20026;-71
2023/08/01 03:38:11;;;;;;;29.20;19.27;;;18.60;99.90;;;;;;5113808;28;20098;-72
2023/08/01 03:40:37;;;;;;;28.55;18.83;;;18.60;99.90;;;;;;5113137;28;20035;-72
2023/08/01 03:43:03;;;;;;;32.83;18.42;;;18.50;99.90;;;;;;5113898;28;20441;-71
2023/08/01 03:45:29;;;;;;;26.92;18.33;;;18.40;99.90;;;;;;5113601;28;20032;-72
2023/08/01 03:47:54;;;;;;;27.40;16.65;;;18.40;99.90;;;;;;5113800;28;20471;-72
2023/08/01 03:50:20;;;;;;;30.73;17.33;;;18.40;99.90;;;;;;5113606;28;20629;-72
2023/08/01 03:52:46;;;;;;;27.38;16.83;;;18.40;99.90;;;;;;5112357;28;20030;-72
2023/08/01 03:55:12;;;;;;;21.63;15.30;;;18.40;99.90;;;;;;5113270;28;20032;-71
2023/08/01 03:57:38;;;;;;;26.13;15.48;;;18.30;99.90;;;;;;5113646;28;20016;-72
2023/08/01 04:00:06;;;;;;;28.83;16.95;;;18.40;99.90;;;;;;5111657;28;20038;-72
2023/08/01 04:02:32;;;;;;;29.25;17.27;;;18.30;99.90;;;;;;5111814;28;20022;-72
2023/08/01 04:04:57;;;;;;;26.05;16.02;;;18.30;99.90;;;;;;5112267;28;20031;-71
2023/08/01 04:07:23;;;;;;;27.42;15.10;;;18.40;99.90;;;;;;5113084;28;20020;-72
2023/08/01 04:09:49;;;;;;;29.98;15.63;;;18.30;99.90;;;;;;5112690;28;20046;-73
2023/08/01 04:12:15;;;;;;;23.17;14.82;;;18.30;99.90;;;;;;5113016;28;20023;-71
2023/08/01 04:14:42;;;;;;;21.88;14.27;;;18.30;99.90;;;;;;5112016;28;20023;-72
2023/08/01 04:17:07;;;;;;;24.30;13.75;;;18.30;99.90;;;;;;5112499;28;20522;-71
2023/08/01 04:19:33;;;;;;;21.83;13.90;;;18.30;99.90;;;;;;5112736;28;20035;-71
2023/08/01 04:21:59;;;;;;;23.55;14.63;;;18.30;99.90;;;;;;5112588;28;20020;-72
2023/08/01 04:24:25;;;;;;;27.85;13.82;;;18.30;99.90;;;;;;5112840;28;20038;-71
2023/08/01 04:26:51;;;;;;;19.20;13.43;;;18.20;99.90;;;;;;5112052;28;20020;-72
2023/08/01 04:29:17;;;;;;;20.17;14.63;;;18.20;99.90;;;;;;5112500;28;20030;-71
2023/08/01 04:31:43;;;;;;;26.00;14.30;;;18.30;99.90;;;;;;5113026;28;20020;-71
2023/08/01 04:34:09;;;;;;;26.33;15.18;;;18.30;99.90;;;;;;5112945;28;20038;-72
2023/08/01 04:36:35;;;;;;;22.33;14.57;;;18.30;99.90;;;;;;5111612;28;20023;-73
2023/08/01 04:39:00;;;;;;;23.42;14.63;;;18.30;99.90;;;;;;5112341;28;20043;-72
2023/08/01 04:41:26;;;;;;;27.63;15.10;;;18.20;99.90;;;;;;5111901;27;20119;-72
2023/08/01 04:43:52;;;;;;;24.23;13.82;;;18.30;99.90;;;;;;5111047;28;20031;-72
2023/08/01 04:46:17;;;;;;;28.88;15.93;;;18.30;99.90;;;;;;5112292;28;20032;-72
2023/08/01 04:48:43;;;;;;;20.75;13.88;;;18.30;99.90;;;;;;5112558;28;20024;-72
2023/08/01 04:51:09;;;;;;;22.25;12.98;;;18.30;99.90;;;;;;5112446;28;20475;-72
2023/08/01 04:53:34;;;;;;;21.63;13.18;;;18.30;99.90;;;;;;5112165;28;20475;-72
2023/08/01 04:56:00;;;;;;;22.08;13.38;;;18.20;99.90;;;;;;5110628;28;20024;-72
2023/08/01 04:58:26;;;;;;;26.10;14.10;;;18.30;99.90;;;;;;5112329;28;20023;-71
2023/08/01 05:00:51;;;;;;;22.75;13.45;;;18.20;99.90;;;;;;5112419;28;20546;-72
2023/08/01 05:03:18;;;;;;;27.65;15.27;;;18.20;99.90;;;;;;5112349;28;20032;-72
2023/08/01 05:05:43;;;;;;;24.05;13.55;;;18.30;99.90;;;;;;5112313;28;20068;-71
2023/08/01 05:08:09;;;;;;;21.98;14.13;;;18.30;99.90;;;;;;5110793;28;20016;-71
2023/08/01 05:10:35;;;;;;;22.05;14.25;;;18.30;99.90;;;;;;5110812;28;20432;-72
2023/08/01 05:13:00;;;;;;;22.55;13.25;;;18.30;99.90;;;;;;5110926;28;20034;-71
2023/08/01 05:15:26;;;;;;;23.17;12.88;;;18.30;99.90;;;;;;5113714;28;20425;-71
2023/08/01 05:17:53;;;;;;;26.83;14.02;;;18.20;99.90;;;;;;5116534;28;20020;-72
2023/08/01 05:20:18;;;;;;;26.80;14.68;;;18.30;99.90;;;;;;5116083;27;20118;-72
2023/08/01 05:22:44;;;;;;;23.38;14.55;;;18.30;99.90;;;;;;5116374;28;20641;-71
2023/08/01 05:25:10;;;;;;;25.45;13.40;;;18.40;99.90;;;;;;5116412;28;20027;-72
2023/08/01 05:27:36;;;;;;;23.25;13.18;;;18.40;99.90;;;;;;5116447;28;20024;-71
2023/08/01 05:30:01;;;;;;;26.00;14.63;;;18.30;99.90;;;;;;5116227;28;20034;-72
2023/08/01 05:32:27;;;;;;;27.90;14.57;;;18.40;99.90;;;;;;5116172;28;20023;-72
2023/08/01 05:34:53;;;;;;;33.38;15.63;;;18.40;99.90;;;;;;5115778;28;20049;-71
2023/08/01 05:37:18;;;;;;;55.30;20.05;;;18.30;99.90;;;;;;5115859;28;20110;-71
2023/08/01 05:39:44;;;;;;;41.33;17.55;;;18.30;99.90;;;;;;5116112;27;20123;-72
2023/08/01 05:42:10;;;;;;;29.00;15.38;;;18.40;99.90;;;;;;5115050;28;20104;-72
2023/08/01 05:44:37;;;;;;;27.92;15.73;;;18.40;99.90;;;;;;5112841;28;20019;-72
2023/08/01 05:47:02;;;;;;;28.63;15.15;;;18.40;99.90;;;;;;5107260;28;20035;-71
2023/08/01 05:49:29;;;;;;;27.58;16.40;;;18.50;99.90;;;;;;5102105;28;20028;-72
2023/08/01 05:51:55;;;;;;;26.13;16.00;;;18.50;99.90;;;;;;5106235;28;20063;-72
2023/08/01 05:54:21;;;;;;;28.02;15.52;;;18.50;99.90;;;;;;5096561;28;20043;-71
2023/08/01 05:56:46;;;;;;;26.88;15.43;;;18.40;99.90;;;;;;5095262;28;20032;-72
2023/08/01 05:59:12;;;;;;;31.10;16.88;;;18.40;99.90;;;;;;5095104;28;20044;-72
2023/08/01 06:01:38;;;;;;;23.88;15.80;;;18.40;99.90;;;;;;5095360;28;20024;-72
2023/08/01 06:04:04;;;;;;;22.77;15.25;;;18.50;99.90;;;;;;5093627;28;20028;-71
2023/08/01 06:06:29;;;;;;;27.58;16.45;;;18.50;99.90;;;;;;5095296;28;20067;-71
2023/08/01 06:08:55;;;;;;;30.33;18.05;;;18.50;99.90;;;;;;5094999;28;20032;-72
2023/08/01 06:11:21;;;;;;;25.60;16.55;;;18.50;99.90;;;;;;5095057;28;20028;-73
2023/08/01 06:13:47;;;;;;;24.38;16.85;;;18.50;99.90;;;;;;5096274;28;20499;-71
2023/08/01 06:16:13;;;;;;;33.65;18.05;;;18.60;99.90;;;;;;5094514;28;20039;-72
2023/08/01 06:18:38;;;;;;;32.40;17.58;;;18.60;99.90;;;;;;5094486;28;20031;-72
2023/08/01 06:21:36;;;;;;;29.67;17.25;;;18.50;99.90;;;;;;5091883;28;20028;-72
2023/08/01 06:24:01;;;;;;;29.88;17.40;;;18.60;99.90;;;;;;5100667;28;20111;-71
2023/08/01 06:26:28;;;;;;;30.17;17.50;;;18.70;99.90;;;;;;5094657;28;20147;-72
2023/08/01 06:28:53;;;;;;;20.55;14.80;;;18.80;99.90;;;;;;5094124;28;20577;-73
2023/08/01 06:31:22;;;;;;;27.98;14.15;;;18.80;99.90;;;;;;5094535;28;20043;-72
2023/08/01 06:33:47;;;;;;;20.13;14.15;;;18.70;99.90;;;;;;5093169;28;20380;-72
2023/08/01 06:36:13;;;;;;;23.92;14.20;;;18.80;99.90;;;;;;5081645;27;20112;-73
2023/08/01 06:38:39;;;;;;;29.00;14.68;;;18.80;99.90;;;;;;5092530;27;20532;-72
2023/08/01 06:41:05;;;;;;;27.38;16.42;;;18.80;99.90;;;;;;5108126;28;20039;-72
2023/08/01 06:43:31;;;;;;;22.30;14.18;;;18.90;99.90;;;;;;5108919;28;20042;-72
2023/08/01 06:45:56;;;;;;;18.30;12.80;;;19.00;99.90;;;;;;5108858;27;20276;-72
2023/08/01 06:48:22;;;;;;;18.85;13.15;;;18.90;99.90;;;;;;5109160;27;20062;-72
2023/08/01 06:50:48;;;;;;;19.80;14.23;;;18.90;99.90;;;;;;5109269;27;20051;-72
2023/08/01 06:53:13;;;;;;;22.08;13.25;;;18.90;99.90;;;;;;5109703;27;20020;-72
2023/08/01 06:55:39;;;;;;;25.60;14.25;;;18.90;99.90;;;;;;5108514;27;20023;-72
2023/08/01 06:58:05;;;;;;;23.02;15.07;;;18.90;99.90;;;;;;5103851;27;20448;-72
2023/08/01 07:00:31;;;;;;;20.63;14.15;;;18.90;99.90;;;;;;5107421;27;20503;-72
2023/08/01 07:02:57;;;;;;;23.27;14.02;;;18.90;99.90;;;;;;5108745;27;20051;-72
2023/08/01 07:05:23;;;;;;;26.45;15.35;;;19.00;99.90;;;;;;5108733;27;20038;-71
2023/08/01 07:07:49;;;;;;;22.48;14.48;;;19.10;99.90;;;;;;5108642;27;20115;-72
2023/08/01 07:10:15;;;;;;;20.50;14.18;;;19.20;99.90;;;;;;5108955;27;20551;-71
2023/08/01 07:12:41;;;;;;;21.80;13.25;;;19.00;99.90;;;;;;5108042;27;20027;-72
2023/08/01 07:15:07;;;;;;;27.50;12.95;;;19.10;99.90;;;;;;5106434;27;20015;-72
2023/08/01 07:18:27;;;;;;;16.05;12.13;;;19.20;99.90;;;;;;5105677;27;20424;-72
2023/08/01 07:21:03;;;;;;;17.10;10.85;;;19.20;99.90;;;;;;5097103;27;20036;-72
2023/08/01 07:23:30;;;;;;;15.43;10.93;;;19.20;99.90;;;;;;5104321;27;20034;-71
2023/08/01 07:25:56;;;;;;;20.02;11.02;;;19.30;99.90;;;;;;5106948;28;20061;-72
2023/08/01 07:28:22;;;;;;;18.92;10.90;;;19.40;99.90;;;;;;5108708;27;20026;-68
2023/08/01 07:30:48;;;;;;;22.75;10.52;;;19.40;99.90;;;;;;5107782;27;20043;-72
2023/08/01 07:33:13;;;;;;;20.92;10.45;;;19.60;99.90;;;;;;5108297;27;20059;-71
2023/08/01 07:35:39;;;;;;;17.15;9.80;;;19.70;99.90;;;;;;5107592;27;20122;-72
2023/08/01 07:38:05;;;;;;;16.33;10.00;;;19.80;99.90;;;;;;5108006;27;20058;-72
2023/08/01 07:40:31;;;;;;;18.90;10.75;;;19.80;99.90;;;;;;5107503;27;20043;-72
2023/08/01 07:42:59;;;;;;;16.70;10.00;;;19.70;99.90;;;;;;5106946;27;20008;-71
2023/08/01 07:45:25;;;;;;;15.18;9.45;;;19.70;99.90;;;;;;5107930;27;20037;-71
2023/08/01 07:47:51;;;;;;;15.80;10.07;;;19.80;99.90;;;;;;5108045;27;20023;-70
2023/08/01 07:50:16;;;;;;;21.90;10.95;;;19.70;99.90;;;;;;5108397;27;20110;-70
2023/08/01 07:52:43;;;;;;;18.73;9.32;;;19.70;99.90;;;;;;5107779;28;20032;-70
2023/08/01 07:55:08;;;;;;;24.50;10.13;;;19.70;99.90;;;;;;5107156;27;20031;-71
2023/08/01 07:57:34;;;;;;;19.98;10.32;;;19.70;99.90;;;;;;5104503;27;20019;-70
2023/08/01 08:00:00;;;;;;;13.27;10.20;;;19.70;99.90;;;;;;5106398;27;20043;-72
2023/08/01 08:02:26;;;;;;;110.00;23.15;;;19.70;99.90;;;;;;5108305;28;20098;-72
2023/08/01 08:04:51;;;;;;;25.35;10.85;;;19.70;99.90;;;;;;5108220;27;20110;-71
2023/08/01 08:07:18;;;;;;;25.95;11.85;;;19.80;99.90;;;;;;5105717;27;20035;-71
2023/08/01 08:09:43;;;;;;;135.30;26.08;;;19.90;99.90;;;;;;5107475;27;20034;-71
2023/08/01 08:12:09;;;;;;;29.42;12.25;;;20.00;99.90;;;;;;5107074;27;20035;-72
2023/08/01 08:14:35;;;;;;;20.92;10.40;;;20.10;99.90;;;;;;5106386;28;20471;-72
2023/08/01 08:17:00;;;;;;;15.52;8.73;;;20.20;99.90;;;;;;5106253;27;20449;-72
2023/08/01 08:19:26;;;;;;;12.40;7.47;;;20.20;99.90;;;;;;5108286;27;20494;-72
2023/08/01 08:21:52;;;;;;;12.38;7.53;;;20.20;99.90;;;;;;5107727;28;20102;-72
2023/08/01 08:24:17;;;;;;;61.10;14.60;;;20.30;99.90;;;;;;5107527;27;20058;-72
2023/08/01 08:26:44;;;;;;;135.75;23.45;;;20.40;99.90;;;;;;5106752;27;20103;-71
2023/08/01 08:29:11;;;;;;;22.88;7.80;;;20.60;99.90;;;;;;5106961;27;20019;-72
2023/08/01 08:31:37;;;;;;;15.35;7.03;;;20.60;99.90;;;;;;5106694;28;20099;-71
2023/08/01 08:34:02;;;;;;;14.18;7.88;;;20.70;99.90;;;;;;5107974;28;20098;-72
2023/08/01 08:36:28;;;;;;;10.60;7.15;;;20.70;99.90;;;;;;5106586;27;20027;-73
2023/08/01 08:38:54;;;;;;;14.57;7.63;;;20.70;99.90;;;;;;5107872;27;20026;-73
2023/08/01 08:41:23;;;;;;;12.95;7.57;;;20.80;99.90;;;;;;5107356;27;20031;-73
2023/08/01 08:43:51;;;;;;;67.22;14.02;;;20.80;99.90;;;;;;5106131;27;20065;-75
2023/08/01 08:46:18;;;;;;;25.15;8.88;;;20.80;99.90;;;;;;5111534;28;20028;-71
2023/08/01 08:48:46;;;;;;;13.23;7.45;;;20.80;99.90;;;;;;5110706;28;20024;-72
2023/08/01 08:51:12;;;;;;;12.80;6.93;;;20.80;99.90;;;;;;5112139;28;20031;-72
2023/08/01 08:53:40;;;;;;;9.73;6.60;;;20.70;99.90;;;;;;5112149;28;20057;-72
2023/08/01 08:56:08;;;;;;;11.43;7.00;;;20.70;99.90;;;;;;5112628;28;20059;-72
2023/08/01 08:58:35;;;;;;;12.65;7.13;;;20.70;99.90;;;;;;5112311;28;20096;-72
2023/08/01 09:01:02;;;;;;;9.00;7.45;;;20.70;99.90;;;;;;5110532;28;20059;-72
2023/08/01 09:03:29;;;;;;;12.30;7.18;;;20.60;99.90;;;;;;5112125;28;20016;-70
2023/08/01 09:06:03;;;;;;;13.63;7.38;;;20.70;99.90;;;;;;5111912;28;20032;-71
2023/08/01 09:08:34;;;;;;;13.25;7.00;;;20.80;99.90;;;;;;5111799;28;20047;-70
2023/08/01 09:11:00;;;;;;;12.80;6.82;;;20.80;99.90;;;;;;5111827;28;20475;-70
2023/08/01 09:13:26;;;;;;;13.65;6.60;;;20.70;99.90;;;;;;5111513;28;20102;-72
2023/08/01 09:15:52;;;;;;;13.90;6.78;;;20.60;99.90;;;;;;5111836;28;20110;-70
2023/08/01 09:18:18;;;;;;;11.70;5.82;;;20.40;99.90;;;;;;5111637;28;20524;-72
2023/08/01 09:20:46;;;;;;;14.93;6.47;;;20.50;99.90;;;;;;5112398;28;20036;-71
2023/08/01 09:23:12;;;;;;;19.15;6.45;;;20.50;99.90;;;;;;5112236;28;20098;-72
2023/08/01 09:25:38;;;;;;;9.68;6.07;;;20.60;99.90;;;;;;5112226;28;20047;-71
2023/08/01 09:28:16;;;;;;;9.93;5.35;;;20.60;99.90;;;;;;5111720;28;20020;-71
2023/08/01 09:30:46;;;;;;;8.18;5.00;;;20.50;99.90;;;;;;5112118;28;20070;-72
2023/08/01 09:33:12;;;;;;;9.73;6.25;;;20.60;99.90;;;;;;5112099;28;20028;-71
2023/08/01 09:35:41;;;;;;;10.93;5.63;;;20.60;99.90;;;;;;5112545;28;20076;-71
2023/08/01 09:38:07;;;;;;;11.00;5.60;;;20.70;99.90;;;;;;5112095;28;20024;-71
2023/08/01 09:40:39;;;;;;;11.77;6.25;;;20.60;99.90;;;;;;5111970;28;20038;-72
2023/08/01 09:43:05;;;;;;;15.13;6.53;;;20.50;99.90;;;;;;5111786;28;20070;-72
2023/08/01 09:45:31;;;;;;;13.77;7.25;;;20.40;99.90;;;;;;5112011;28;20049;-73
2023/08/01 09:47:57;;;;;;;15.10;7.93;;;20.40;99.90;;;;;;5112168;28;20054;-73
2023/08/01 09:50:24;;;;;;;10.48;7.22;;;20.40;99.90;;;;;;5111806;28;20556;-73
2023/08/01 09:52:52;;;;;;;11.13;7.05;;;20.30;99.90;;;;;;5111386;28;20022;-73
2023/08/01 09:55:39;;;;;;;11.73;7.53;;;20.20;99.90;;;;;;5107982;28;20586;-73
2023/08/01 09:58:07;;;;;;;8.90;7.43;;;20.20;99.90;;;;;;5102755;28;20027;-72
2023/08/01 10:00:33;;;;;;;17.17;8.30;;;20.30;99.90;;;;;;5104010;28;20051;-70
2023/08/01 10:03:00;;;;;;;56.25;14.18;;;20.40;99.90;;;;;;5104247;28;20062;-73
2023/08/01 10:05:30;;;;;;;91.50;18.42;;;20.40;99.90;;;;;;5109371;28;20032;-72
2023/08/01 10:07:59;;;;;;;136.30;22.83;;;20.30;99.90;;;;;;5108701;28;20084;-72
2023/08/01 10:10:25;;;;;;;23.88;9.70;;;20.20;99.90;;;;;;5100647;28;20020;-71
2023/08/01 10:12:54;;;;;;;21.27;9.77;;;20.00;99.90;;;;;;5109011;28;20027;-73
2023/08/01 10:15:20;;;;;;;17.65;10.93;;;19.90;99.90;;;;;;5115621;28;20012;-74
2023/08/01 10:17:46;;;;;;;11.50;8.98;;;19.80;99.90;;;;;;5115050;28;20028;-73
2023/08/01 10:20:14;;;;;;;15.95;9.15;;;19.70;99.90;;;;;;5115224;28;20078;-73
2023/08/01 10:22:41;;;;;;;12.43;8.95;;;19.60;99.90;;;;;;5115329;28;20023;-74
2023/08/01 10:25:10;;;;;;;10.15;8.40;;;19.60;99.90;;;;;;5113449;28;20061;-73
2023/08/01 10:27:36;;;;;;;9.40;6.85;;;19.50;99.90;;;;;;5115277;28;20500;-75
2023/08/01 10:30:04;;;;;;;8.85;6.57;;;19.50;99.90;;;;;;5114560;28;20023;-75
2023/08/01 10:32:34;;;;;;;10.02;6.18;;;19.60;99.90;;;;;;5114948;28;20103;-72
2023/08/01 10:35:01;;;;;;;10.15;6.95;;;19.70;99.90;;;;;;5114879;28;20106;-72
2023/08/01 10:37:38;;;;;;;7.18;6.47;;;19.60;99.90;;;;;;5113201;28;20020;-74
2023/08/01 10:40:04;;;;;;;9.25;6.13;;;19.60;99.90;;;;;;5114094;28;20074;-73
2023/08/01 10:42:44;;;;;;;7.93;5.70;;;19.50;99.90;;;;;;5113677;28;20028;-73
2023/08/01 10:45:26;;;;;;;8.65;4.53;;;19.60;99.90;;;;;;5115033;28;20024;-73
2023/08/01 10:47:52;;;;;;;;;;;19.60;99.90;;;;;;5115384;28;20030;-75
2023/08/01 10:50:18;;;;;;;9.73;4.15;;;19.60;99.90;;;;;;5114218;28;19998;-74
2023/08/01 10:52:46;;;;;;;9.88;4.68;;;19.60;99.90;;;;;;5112536;28;20375;-74
2023/08/01 10:55:12;;;;;;;9.30;4.50;;;19.60;99.90;;;;;;5110221;28;20027;-75
2023/08/01 10:57:47;;;;;;;11.48;5.20;;;19.60;99.90;;;;;;5110858;28;20057;-73
2023/08/01 11:00:17;;;;;;;8.98;5.20;;;19.60;99.90;;;;;;5114728;28;20039;-73
2023/08/01 11:02:50;;;;;;;11.82;5.63;;;19.80;99.90;;;;;;5115332;28;20042;-74
2023/08/01 11:05:16;;;;;;;25.02;7.38;;;19.80;99.90;;;;;;5115438;28;20027;-74
2023/08/01 11:07:41;;;;;;;12.25;5.70;;;20.20;99.90;;;;;;5115288;28;20016;-72
2023/08/01 11:10:11;;;;;;;9.50;4.70;;;20.40;99.90;;;;;;5115073;28;20028;-74
2023/08/01 11:12:39;;;;;;;9.73;5.38;;;20.50;99.90;;;;;;5114887;28;20020;-72
2023/08/01 11:15:14;;;;;;;57.22;10.32;;;20.60;99.90;;;;;;5115296;28;20301;-74
2023/08/01 11:17:42;;;;;;;63.38;11.48;;;20.70;99.90;;;;;;5115053;28;20371;-74
2023/08/01 11:20:10;;;;;;;19.30;6.32;;;20.80;99.90;;;;;;5114824;28;20472;-72
2023/08/01 11:22:49;;;;;;;9.57;4.53;;;20.80;99.90;;;;;;5114878;28;20061;-73
2023/08/01 11:25:15;;;;;;;13.45;5.43;;;21.00;99.90;;;;;;5114788;28;20047;-72
2023/08/01 11:27:40;;;;;;;9.80;4.25;;;21.00;99.90;;;;;;5114853;28;20051;-73
2023/08/01 11:30:07;;;;;;;10.77;4.75;;;21.10;99.90;;;;;;5111075;28;20019;-72
2023/08/01 11:32:37;;;;;;;12.65;4.45;;;21.20;99.90;;;;;;5114637;28;20020;-72
2023/08/01 11:35:03;;;;;;;9.75;4.07;;;21.30;99.90;;;;;;5114718;28;20050;-73
2023/08/01 11:37:30;;;;;;;12.85;4.28;;;21.40;99.90;;;;;;5114245;28;20093;-72
2023/08/01 11:39:56;;;;;;;11.15;4.30;;;21.60;99.90;;;;;;5114190;27;20599;-72
2023/08/01 11:42:22;;;;;;;10.15;4.07;;;21.80;99.90;;;;;;5113187;28;20023;-73
2023/08/01 11:44:48;;;;;;;10.63;4.22;;;21.90;99.90;;;;;;5114515;28;20023;-72
2023/08/01 11:47:17;;;;;;;8.52;4.00;;;21.90;99.90;;;;;;5114448;28;20023;-71
2023/08/01 11:49:48;;;;;;;8.68;3.42;;;21.90;99.90;;;;;;5113193;28;20019;-72
2023/08/01 11:52:27;;;;;;;8.57;4.32;;;22.10;99.90;;;;;;5113068;28;20032;-72
2023/08/01 11:54:54;;;;;;;11.63;4.22;;;22.00;99.90;;;;;;5112266;28;20020;-73
2023/08/01 11:57:23;;;;;;;11.55;4.07;;;21.90;99.90;;;;;;5096384;28;20414;-72
2023/08/01 11:59:50;;;;;;;9.23;4.47;;;21.90;99.90;;;;;;5095599;28;20034;-73
2023/08/01 12:02:31;;;;;;;10.15;3.92;;;21.90;99.90;;;;;;5103051;28;20035;-72
2023/08/01 12:04:57;;;;;;;12.00;4.60;;;21.80;99.90;;;;;;5093110;28;20510;-71
2023/08/01 12:07:25;;;;;;;10.23;3.95;;;21.60;99.90;;;;;;5090867;28;20102;-72
2023/08/01 12:10:01;;;;;;;8.57;3.75;;;21.50;99.90;;;;;;5092713;28;20036;-73
2023/08/01 12:12:28;;;;;;;6.65;3.53;;;21.20;99.90;;;;;;5097731;28;20471;-72
2023/08/01 12:14:54;;;;;;;9.57;4.22;;;21.40;99.90;;;;;;5111903;28;20114;-73
2023/08/01 12:17:20;;;;;;;8.40;3.50;;;21.70;99.90;;;;;;5113091;28;20027;-72
2023/08/01 12:19:46;;;;;;;5.63;3.25;;;22.10;99.90;;;;;;5111383;28;20047;-73
2023/08/01 12:22:12;;;;;;;7.13;3.30;;;22.10;99.90;;;;;;5112497;28;20089;-73
2023/08/01 12:24:38;;;;;;;9.25;3.90;;;22.40;99.90;;;;;;5112293;28;20065;-72
2023/08/01 12:27:06;;;;;;;6.70;3.30;;;22.50;99.90;;;;;;5113074;28;20042;-72
2023/08/01 12:29:32;;;;;;;11.10;3.47;;;22.70;99.90;;;;;;5111312;28;20016;-72
2023/08/01 12:31:58;;;;;;;6.15;3.22;;;22.90;99.90;;;;;;5112878;28;20072;-73